sensor_id;sensor_type;location;lat;lon;timestamp;pressure;altitude;pressure_sealevel;temperature;humidity
19600;BME280;9947;57.722;12.012;2023-08-12T00:02:10;101188.16;;;15.97;100.00
19600;BME280;9947;57.722;12.012;2023-08-12T00:05:15;101191.75;;;15.97;100.00
19600;BME280;9947;57.722;12.012;2023-08-12T00:07:59;101182.00;;;16.04;100.00
19600;BME280;9947;57.722;12.012;2023-08-12T00:10:53;101187.72;;;16.11;100.00
19600;BME280;9947;57.722;12.012;2023-08-12T00:13:30;101184.88;;;16.13;100.00
19600;BME280;9947;57.722;12.012;2023-08-12T00:16:02;101181.59;;;16.19;100.00
19600;BME280;9947;57.722;12.012;2023-08-12T00:18:41;101190.34;;;16.22;100.00
19600;BME280;9947;57.722;12.012;2023-08-12T00:21:27;101181.88;;;16.25;100.00
19600;BME280;9947;57.722;12.012;2023-08-12T00:24:07;101185.47;;;16.26;100.00
19600;BME280;9947;57.722;12.012;2023-08-12T00:26:51;101180.72;;;16.28;100.00
19600;BME280;9947;57.722;12.012;2023-08-12T00:29:21;101179.56;;;16.30;100.00
19600;BME280;9947;57.722;12.012;2023-08-12T00:31:53;101180.56;;;16.29;100.00
19600;BME280;9947;57.722;12.012;2023-08-12T00:37:18;101181.13;;;16.33;100.00
19600;BME280;9947;57.722;12.012;2023-08-12T00:40:04;101188.91;;;16.28;100.00
19600;BME280;9947;57.722;12.012;2023-08-12T00:43:12;101181.72;;;16.27;100.00
19600;BME280;9947;57.722;12.012;2023-08-12T00:45:46;101190.63;;;16.29;100.00
19600;BME280;9947;57.722;12.012;2023-08-12T00:48:22;101181.13;;;16.33;100.00
19600;BME280;9947;57.722;12.012;2023-08-12T00:51:04;101181.13;;;16.33;100.00
19600;BME280;9947;57.722;12.012;2023-08-12T00:53:37;101176.97;;;16.29;100.00
19600;BME280;9947;57.722;12.012;2023-08-12T00:56:13;101172.53;;;16.28;100.00
19600;BME280;9947;57.722;12.012;2023-08-12T00:58:44;101175.25;;;16.28;100.00
19600;BME280;9947;57.722;12.012;2023-08-12T01:01:18;101166.06;;;16.29;100.00
19600;BME280;9947;57.722;12.012;2023-08-12T01:04:12;101177.13;;;16.27;100.00
19600;BME280;9947;57.722;12.012;2023-08-12T01:06:39;101168.66;;;16.30;100.00
19600;BME280;9947;57.722;12.012;2023-08-12T01:12:29;101150.13;;;16.34;100.00
19600;BME280;9947;57.722;12.012;2023-08-12T01:15:13;101151.56;;;16.38;100.00
19600;BME280;9947;57.722;12.012;2023-08-12T01:17:49;101157.59;;;16.42;100.00
19600;BME280;9947;57.722;12.012;2023-08-12T01:20:35;101148.41;;;16.43;100.00
19600;BME280;9947;57.722;12.012;2023-08-12T01:23:12;101161.91;;;16.44;100.00
19600;BME280;9947;57.722;12.012;2023-08-12T01:25:45;101153.88;;;16.43;100.00
19600;BME280;9947;57.722;12.012;2023-08-12T01:28:21;101160.75;;;16.47;100.00
19600;BME280;9947;57.722;12.012;2023-08-12T01:31:12;101148.41;;;16.43;100.00
19600;BME280;9947;57.722;12.012;2023-08-12T01:34:19;101153.16;;;16.41;100.00
19600;BME280;9947;57.722;12.012;2023-08-12T01:36:58;101146.84;;;16.40;100.00
19600;BME280;9947;57.722;12.012;2023-08-12T01:39:35;101145.69;;;16.43;100.00
19600;BME280;9947;57.722;12.012;2023-08-12T01:42:06;101150.28;;;16.42;100.00
19600;BME280;9947;57.722;12.012;2023-08-12T01:44:36;101151.72;;;16.46;100.00
19600;BME280;9947;57.722;12.012;2023-08-12T01:52:15;101151.13;;;16.52;100.00
19600;BME280;9947;57.722;12.012;2023-08-12T01:55:10;101144.66;;;16.53;100.00
19600;BME280;9947;57.722;12.012;2023-08-12T01:57:52;101136.31;;;16.55;100.00
19600;BME280;9947;57.722;12.012;2023-08-12T02:00:36;101142.03;;;16.61;100.00
19600;BME280;9947;57.722;12.012;2023-08-12T02:03:21;101134.00;;;16.60;100.00
19600;BME280;9947;57.722;12.012;2023-08-12T02:08:28;101130.59;;;16.68;100.00
19600;BME280;9947;57.722;12.012;2023-08-12T02:11:07;101127.88;;;16.68;100.00
19600;BME280;9947;57.722;12.012;2023-08-12T02:13:38;101123.13;;;16.70;100.00
19600;BME280;9947;57.722;12.012;2023-08-12T02:16:08;101114.47;;;16.74;100.00
19600;BME280;9947;57.722;12.012;2023-08-12T02:18:41;101110.59;;;16.77;100.00
19600;BME280;9947;57.722;12.012;2023-08-12T02:21:09;101116.59;;;16.80;100.00
19600;BME280;9947;57.722;12.012;2023-08-12T02:24:02;101102.25;;;16.78;100.00
19600;BME280;9947;57.722;12.012;2023-08-12T02:26:39;101096.78;;;16.78;100.00
19600;BME280;9947;57.722;12.012;2023-08-12T02:29:09;101102.53;;;16.75;100.00
19600;BME280;9947;57.722;12.012;2023-08-12T02:31:37;101103.56;;;16.74;100.00
19600;BME280;9947;57.722;12.012;2023-08-12T02:34:41;101088.63;;;16.69;100.00
19600;BME280;9947;57.722;12.012;2023-08-12T02:37:15;101099.72;;;16.67;100.00
19600;BME280;9947;57.722;12.012;2023-08-12T02:39:47;101101.81;;;16.63;100.00
19600;BME280;9947;57.722;12.012;2023-08-12T02:42:15;101104.69;;;16.62;100.00
19600;BME280;9947;57.722;12.012;2023-08-12T02:44:51;101102.09;;;16.60;100.00
19600;BME280;9947;57.722;12.012;2023-08-12T02:47:21;101095.50;;;16.63;100.00
19600;BME280;9947;57.722;12.012;2023-08-12T02:50:07;101094.78;;;16.61;100.00
19600;BME280;9947;57.722;12.012;2023-08-12T02:52:39;101103.13;;;16.59;100.00
19600;BME280;9947;57.722;12.012;2023-08-12T02:55:25;101093.22;;;16.58;100.00
19600;BME280;9947;57.722;12.012;2023-08-12T02:58:13;101094.22;;;16.57;100.00
19600;BME280;9947;57.722;12.012;2023-08-12T03:01:01;101102.69;;;16.54;100.00
19600;BME280;9947;57.722;12.012;2023-08-12T03:03:36;101101.84;;;16.54;100.00
19600;BME280;9947;57.722;12.012;2023-08-12T03:06:34;101098.56;;;16.50;100.00
19600;BME280;9947;57.722;12.012;2023-08-12T03:09:14;101104.00;;;16.50;100.00
19600;BME280;9947;57.722;12.012;2023-08-12T03:11:52;101100.56;;;16.48;100.00
19600;BME280;9947;57.722;12.012;2023-08-12T03:14:40;101099.84;;;16.46;100.00
19600;BME280;9947;57.722;12.012;2023-08-12T03:17:11;101103.75;;;16.44;100.00
19600;BME280;9947;57.722;12.012;2023-08-12T03:25:31;101104.47;;;16.46;100.00
19600;BME280;9947;57.722;12.012;2023-08-12T03:27:58;101107.34;;;16.44;100.00
19600;BME280;9947;57.722;12.012;2023-08-12T03:30:42;101109.19;;;16.44;100.00
19600;BME280;9947;57.722;12.012;2023-08-12T03:33:27;101109.63;;;16.39;100.00
19600;BME280;9947;57.722;12.012;2023-08-12T03:38:53;101108.50;;;16.42;100.00
19600;BME280;9947;57.722;12.012;2023-08-12T03:42:10;101103.03;;;16.42;100.00
19600;BME280;9947;57.722;12.012;2023-08-12T03:45:06;101103.03;;;16.42;100.00
19600;BME280;9947;57.722;12.012;2023-08-12T03:47:54;101103.91;;;16.42;100.00
19600;BME280;9947;57.722;12.012;2023-08-12T03:50:32;101099.72;;;16.48;100.00
19600;BME280;9947;57.722;12.012;2023-08-12T03:53:16;101090.66;;;16.47;100.00
19600;BME280;9947;57.722;12.012;2023-08-12T03:55:59;101093.38;;;16.47;100.00
19600;BME280;9947;57.722;12.012;2023-08-12T04:01:42;101080.03;;;16.44;100.00
19600;BME280;9947;57.722;12.012;2023-08-12T04:04:12;101077.31;;;16.44;100.00
19600;BME280;9947;57.722;12.012;2023-08-12T04:06:43;101071.72;;;16.46;100.00
19600;BME280;9947;57.722;12.012;2023-08-12T04:11:57;101081.91;;;16.44;100.00
19600;BME280;9947;57.722;12.012;2023-08-12T04:14:41;101086.38;;;16.45;100.00
19600;BME280;9947;57.722;12.012;2023-08-12T04:17:27;101089.81;;;16.47;100.00
19600;BME280;9947;57.722;12.012;2023-08-12T04:20:48;101089.25;;;16.43;100.00
19600;BME280;9947;57.722;12.012;2023-08-12T04:23:57;101079.34;;;16.42;100.00
19600;BME280;9947;57.722;12.012;2023-08-12T04:26:31;101081.91;;;16.44;100.00
19600;BME280;9947;57.722;12.012;2023-08-12T04:29:03;101083.34;;;16.48;100.00
19600;BME280;9947;57.722;12.012;2023-08-12T04:32:11;101080.91;;;16.45;100.00
19600;BME280;9947;57.722;12.012;2023-08-12T04:35:26;101082.31;;;16.49;100.00
19600;BME280;9947;57.722;12.012;2023-08-12T04:39:03;101079.91;;;16.46;100.00
19600;BME280;9947;57.722;12.012;2023-08-12T04:42:10;101079.44;;;16.50;100.00
19600;BME280;9947;57.722;12.012;2023-08-12T04:44:45;101075.16;;;16.48;100.00
19600;BME280;9947;57.722;12.012;2023-08-12T04:47:44;101075.72;;;16.51;100.00
19600;BME280;9947;57.722;12.012;2023-08-12T04:59:09;101078.44;;;16.51;100.00
19600;BME280;9947;57.722;12.012;2023-08-12T05:02:33;101081.16;;;16.51;100.00
19600;BME280;9947;57.722;12.012;2023-08-12T05:05:20;101082.19;;;16.50;100.00
19600;BME280;9947;57.722;12.012;2023-08-12T05:08:08;101088.66;;;16.49;100.00
19600;BME280;9947;57.722;12.012;2023-08-12T05:11:09;101093.09;;;16.50;100.00
19600;BME280;9947;57.722;12.012;2023-08-12T05:13:56;101093.50;;;16.55;100.00
19600;BME280;9947;57.722;12.012;2023-08-12T05:16:43;101086.88;;;16.58;100.00
19600;BME280;9947;57.722;12.012;2023-08-12T05:19:14;101077.53;;;16.60;100.00
19600;BME280;9947;57.722;12.012;2023-08-12T05:27:49;101096.38;;;16.54;100.00
19600;BME280;9947;57.722;12.012;2023-08-12T05:30:48;101093.66;;;16.54;100.00
19600;BME280;9947;57.722;12.012;2023-08-12T05:33:23;101099.25;;;16.52;100.00
19600;BME280;9947;57.722;12.012;2023-08-12T05:35:58;101088.06;;;16.55;100.00
19600;BME280;9947;57.722;12.012;2023-08-12T05:38:41;101087.19;;;16.55;100.00
19600;BME280;9947;57.722;12.012;2023-08-12T05:41:23;101094.66;;;16.53;100.00
19600;BME280;9947;57.722;12.012;2023-08-12T05:44:00;101098.25;;;16.53;100.00
19600;BME280;9947;57.722;12.012;2023-08-12T05:46:30;101097.09;;;16.56;100.00
19600;BME280;9947;57.722;12.012;2023-08-12T05:49:15;101099.69;;;16.57;100.00
19600;BME280;9947;57.722;12.012;2023-08-12T05:51:51;101098.66;;;16.58;100.00
19600;BME280;9947;57.722;12.012;2023-08-12T05:54:51;101099.81;;;16.56;100.00
19600;BME280;9947;57.722;12.012;2023-08-12T05:57:44;101091.19;;;16.60;100.00
19600;BME280;9947;57.722;12.012;2023-08-12T06:00:51;101099.69;;;16.57;100.00
19600;BME280;9947;57.722;12.012;2023-08-12T06:03:25;101099.81;;;16.56;100.00
19600;BME280;9947;57.722;12.012;2023-08-12T06:05:57;101106.59;;;16.52;100.00
19600;BME280;9947;57.722;12.012;2023-08-12T06:11:15;101105.03;;;16.49;100.00
19600;BME280;9947;57.722;12.012;2023-08-12T06:16:39;101119.41;;;16.42;100.00
19600;BME280;9947;57.722;12.012;2023-08-12T06:19:07;101127.59;;;16.42;100.00
19600;BME280;9947;57.722;12.012;2023-08-12T06:21:51;101133.06;;;16.42;100.00
19600;BME280;9947;57.722;12.012;2023-08-12T06:24:23;101133.59;;;16.35;100.00
19600;BME280;9947;57.722;12.012;2023-08-12T06:27:42;101136.47;;;16.34;100.00
19600;BME280;9947;57.722;12.012;2023-08-12T06:30:44;101143.66;;;16.35;100.00
19600;BME280;9947;57.722;12.012;2023-08-12T06:45:30;101154.72;;;16.33;100.00
19600;BME280;9947;57.722;12.012;2023-08-12T06:48:12;101159.88;;;16.37;100.00
19600;BME280;9947;57.722;12.012;2023-08-12T06:50:45;101180.00;;;16.35;100.00
19600;BME280;9947;57.722;12.012;2023-08-12T06:53:30;101184.44;;;16.37;100.00
19600;BME280;9947;57.722;12.012;2023-08-12T06:56:16;101195.22;;;16.38;100.00
19600;BME280;9947;57.722;12.012;2023-08-12T07:01:34;101209.16;;;16.25;100.00
19600;BME280;9947;57.722;12.012;2023-08-12T07:04:04;101223.66;;;16.16;100.00
19600;BME280;9947;57.722;12.012;2023-08-12T07:13:16;101232.56;;;16.28;100.00
19600;BME280;9947;57.722;12.012;2023-08-12T07:16:07;101231.97;;;16.34;100.00
19600;BME280;9947;57.722;12.012;2023-08-12T07:19:03;101245.31;;;16.37;100.00
19600;BME280;9947;57.722;12.012;2023-08-12T07:22:03;101255.25;;;16.48;100.00
19600;BME280;9947;57.722;12.012;2023-08-12T07:24:47;101249.78;;;16.38;100.00
19600;BME280;9947;57.722;12.012;2023-08-12T07:27:15;101246.34;;;16.26;100.00
19600;BME280;9947;57.722;12.012;2023-08-12T07:30:25;101242.75;;;16.26;100.00
19600;BME280;9947;57.722;12.012;2023-08-12T07:33:12;101245.19;;;16.39;100.00
19600;BME280;9947;57.722;12.012;2023-08-12T07:35:53;101236.28;;;16.56;100.00
19600;BME280;9947;57.722;12.012;2023-08-12T07:38:24;101232.59;;;16.76;100.00
19600;BME280;9947;57.722;12.012;2023-08-12T07:40:53;101222.66;;;16.85;100.00
19600;BME280;9947;57.722;12.012;2023-08-12T07:43:23;101209.22;;;17.11;100.00
19600;BME280;9947;57.722;12.012;2023-08-12T07:45:56;101219.31;;;17.47;100.00
19600;BME280;9947;57.722;12.012;2023-08-12T07:51:10;101182.00;;;17.56;100.00
19600;BME280;9947;57.722;12.012;2023-08-12T07:53:45;101169.97;;;17.67;100.00
19600;BME280;9947;57.722;12.012;2023-08-12T07:56:25;101154.75;;;17.92;100.00
19600;BME280;9947;57.722;12.012;2023-08-12T07:59:11;101142.38;;;17.87;100.00
19600;BME280;9947;57.722;12.012;2023-08-12T08:01:42;101137.00;;;18.13;100.00
19600;BME280;9947;57.722;12.012;2023-08-12T08:04:16;101116.59;;;18.95;100.00
19600;BME280;9947;57.722;12.012;2023-08-12T08:06:53;101101.84;;;19.22;100.00
19600;BME280;9947;57.722;12.012;2023-08-12T08:09:24;101099.53;;;20.10;100.00
19600;BME280;9947;57.722;12.012;2023-08-12T08:12:12;101092.53;;;20.40;100.00
19600;BME280;9947;57.722;12.012;2023-08-12T08:14:46;101099.66;;;19.84;100.00
19600;BME280;9947;57.722;12.012;2023-08-12T08:17:17;101099.56;;;19.52;100.00
19600;BME280;9947;57.722;12.012;2023-08-12T08:22:35;101101.25;;;19.02;100.00
19600;BME280;9947;57.722;12.012;2023-08-12T08:25:16;101106.81;;;18.93;100.00
19600;BME280;9947;57.722;12.012;2023-08-12T08:27:48;101114.28;;;18.74;100.00
19600;BME280;9947;57.722;12.012;2023-08-12T08:30:20;101112.47;;;18.65;100.00
19600;BME280;9947;57.722;12.012;2023-08-12T08:33:04;101115.00;;;18.85;100.00
19600;BME280;9947;57.722;12.012;2023-08-12T08:35:36;101106.94;;;19.09;100.00
19600;BME280;9947;57.722;12.012;2023-08-12T08:40:41;101110.22;;;19.21;100.00
19600;BME280;9947;57.722;12.012;2023-08-12T08:46:01;101096.59;;;19.45;100.00
19600;BME280;9947;57.722;12.012;2023-08-12T08:48:41;101080.75;;;19.57;100.00
19600;BME280;9947;57.722;12.012;2023-08-12T08:51:26;101091.09;;;19.95;100.00
19600;BME280;9947;57.722;12.012;2023-08-12T08:54:02;101098.47;;;19.79;100.00
19600;BME280;9947;57.722;12.012;2023-08-12T08:56:58;101101.34;;;19.69;100.00
19600;BME280;9947;57.722;12.012;2023-08-12T08:59:30;101103.03;;;19.54;100.00
19600;BME280;9947;57.722;12.012;2023-08-12T09:02:17;101102.19;;;19.61;100.00
19600;BME280;9947;57.722;12.012;2023-08-12T09:05:18;101100.81;;;19.57;100.00
19600;BME280;9947;57.722;12.012;2023-08-12T09:08:13;101084.72;;;19.62;100.00
19600;BME280;9947;57.722;12.012;2023-08-12T09:10:58;101088.88;;;19.83;100.00
19600;BME280;9947;57.722;12.012;2023-08-12T09:14:13;101087.78;;;19.59;100.00
19600;BME280;9947;57.722;12.012;2023-08-12T09:17:04;101084.25;;;19.91;100.00
19600;BME280;9947;57.722;12.012;2023-08-12T09:19:56;101091.28;;;20.18;100.00
19600;BME280;9947;57.722;12.012;2023-08-12T09:23:15;101096.25;;;20.15;100.00
19600;BME280;9947;57.722;12.012;2023-08-12T09:25:54;101103.78;;;19.88;100.00
19600;BME280;9947;57.722;12.012;2023-08-12T09:29:03;101103.81;;;20.05;100.00
19600;BME280;9947;57.722;12.012;2023-08-12T09:32:09;101096.59;;;19.79;100.00
19600;BME280;9947;57.722;12.012;2023-08-12T09:34:58;101096.59;;;19.45;100.00
19600;BME280;9947;57.722;12.012;2023-08-12T09:38:06;101083.91;;;19.78;100.00
19600;BME280;9947;57.722;12.012;2023-08-12T09:43:16;101088.50;;;19.78;100.00
19600;BME280;9947;57.722;12.012;2023-08-12T09:46:10;101080.47;;;20.25;100.00
19600;BME280;9947;57.722;12.012;2023-08-12T09:48:46;101075.19;;;20.56;100.00
19600;BME280;9947;57.722;12.012;2023-08-12T09:51:45;101080.34;;;21.06;100.00
19600;BME280;9947;57.722;12.012;2023-08-12T09:54:26;101087.03;;;21.51;100.00
19600;BME280;9947;57.722;12.012;2023-08-12T09:57:17;101084.34;;;21.43;100.00
19600;BME280;9947;57.722;12.012;2023-08-12T09:59:53;101086.31;;;21.57;100.00
19600;BME280;9947;57.722;12.012;2023-08-12T10:02:53;101083.56;;;21.26;100.00
19600;BME280;9947;57.722;12.012;2023-08-12T10:05:27;101080.88;;;21.49;100.00
19600;BME280;9947;57.722;12.012;2023-08-12T10:07:56;101074.28;;;21.19;100.00
19600;BME280;9947;57.722;12.012;2023-08-12T10:10:39;101077.94;;;21.11;100.00
19600;BME280;9947;57.722;12.012;2023-08-12T10:13:33;101067.59;;;20.66;100.00
19600;BME280;9947;57.722;12.012;2023-08-12T10:19:12;101072.25;;;21.13;100.00
19600;BME280;9947;57.722;12.012;2023-08-12T10:21:44;101076.53;;;21.15;100.00
19600;BME280;9947;57.722;12.012;2023-08-12T10:24:42;101075.13;;;21.36;100.00
19600;BME280;9947;57.722;12.012;2023-08-12T10:30:03;101072.50;;;21.42;100.00
19600;BME280;9947;57.722;12.012;2023-08-12T10:33:06;101064.19;;;21.11;100.00
19600;BME280;9947;57.722;12.012;2023-08-12T10:35:49;101072.56;;;20.71;100.00
19600;BME280;9947;57.722;12.012;2023-08-12T10:38:37;101075.50;;;20.53;100.00
19600;BME280;9947;57.722;12.012;2023-08-12T10:41:35;101070.84;;;20.70;100.00
19600;BME280;9947;57.722;12.012;2023-08-12T10:44:16;101077.41;;;21.08;100.00
19600;BME280;9947;57.722;12.012;2023-08-12T10:46:51;101074.78;;;20.83;100.00
19600;BME280;9947;57.722;12.012;2023-08-12T10:49:20;101067.59;;;20.66;100.00
19600;BME280;9947;57.722;12.012;2023-08-12T10:51:58;101071.16;;;20.75;100.00
19600;BME280;9947;57.722;12.012;2023-08-12T10:54:33;101072.25;;;21.05;100.00
19600;BME280;9947;57.722;12.012;2023-08-12T10:57:14;101080.38;;;20.98;100.00
19600;BME280;9947;57.722;12.012;2023-08-12T11:02:17;101078.06;;;21.26;100.00
19600;BME280;9947;57.722;12.012;2023-08-12T11:04:49;101067.13;;;21.49;100.00
19600;BME280;9947;57.722;12.012;2023-08-12T11:10:21;101067.16;;;21.95;100.00
19600;BME280;9947;57.722;12.012;2023-08-12T11:12:55;101058.78;;;22.11;100.00
19600;BME280;9947;57.722;12.012;2023-08-12T11:15:32;101058.78;;;21.34;100.00
19600;BME280;9947;57.722;12.012;2023-08-12T11:18:03;101055.34;;;21.32;100.00
19600;BME280;9947;57.722;12.012;2023-08-12T11:25:43;101058.47;;;21.83;100.00
19600;BME280;9947;57.722;12.012;2023-08-12T11:28:24;101056.91;;;21.89;100.00
19600;BME280;9947;57.722;12.012;2023-08-12T11:33:36;101047.91;;;22.18;100.00
19600;BME280;9947;57.722;12.012;2023-08-12T11:36:28;101045.44;;;22.00;100.00
19600;BME280;9947;57.722;12.012;2023-08-12T11:39:03;101047.03;;;21.71;100.00
19600;BME280;9947;57.722;12.012;2023-08-12T11:41:43;101049.06;;;21.07;100.00
19600;BME280;9947;57.722;12.012;2023-08-12T11:44:16;101046.22;;;21.32;100.00
19600;BME280;9947;57.722;12.012;2023-08-12T11:46:54;101035.72;;;21.89;100.00
19600;BME280;9947;57.722;12.012;2023-08-12T11:49:30;101037.81;;;22.10;100.00
19600;BME280;9947;57.722;12.012;2023-08-12T11:52:05;101038.41;;;21.74;100.00
19600;BME280;9947;57.722;12.012;2023-08-12T11:57:11;101048.09;;;21.39;100.00
19600;BME280;9947;57.722;12.012;2023-08-12T12:02:04;101054.03;;;21.51;100.00
19600;BME280;9947;57.722;12.012;2023-08-12T12:04:47;101042.63;;;21.31;100.00
19600;BME280;9947;57.722;12.012;2023-08-12T12:07:23;101048.75;;;21.72;100.00
19600;BME280;9947;57.722;12.012;2023-08-12T12:09:55;101043.91;;;21.74;100.00
19600;BME280;9947;57.722;12.012;2023-08-12T12:12:26;101048.88;;;21.79;100.00
19600;BME280;9947;57.722;12.012;2023-08-12T12:15:15;101037.19;;;21.77;100.00
19600;BME280;9947;57.722;12.012;2023-08-12T12:20:57;101030.41;;;22.10;100.00
19600;BME280;9947;57.722;12.012;2023-08-12T12:26:04;101026.31;;;22.06;100.00
19600;BME280;9947;57.722;12.012;2023-08-12T12:31:00;101007.94;;;22.22;100.00
19600;BME280;9947;57.722;12.012;2023-08-12T12:33:27;101007.09;;;22.21;100.00
19600;BME280;9947;57.722;12.012;2023-08-12T12:35:57;101011.88;;;22.57;100.00
19600;BME280;9947;57.722;12.012;2023-08-12T12:38:28;101020.78;;;22.29;100.00
19600;BME280;9947;57.722;12.012;2023-08-12T12:41:00;101013.94;;;22.25;100.00
19600;BME280;9947;57.722;12.012;2023-08-12T12:43:34;101014.13;;;22.24;100.00
19600;BME280;9947;57.722;12.012;2023-08-12T12:46:04;101018.84;;;22.15;100.00
19600;BME280;9947;57.722;12.012;2023-08-12T12:49:04;101027.47;;;21.66;100.00
19600;BME280;9947;57.722;12.012;2023-08-12T12:51:39;101023.59;;;21.52;100.00
19600;BME280;9947;57.722;12.012;2023-08-12T12:54:11;101029.22;;;21.59;100.00
19600;BME280;9947;57.722;12.012;2023-08-12T12:56:47;101022.50;;;21.39;100.00
19600;BME280;9947;57.722;12.012;2023-08-12T12:59:18;101023.19;;;21.64;100.00
19600;BME280;9947;57.722;12.012;2023-08-12T13:01:50;101012.53;;;21.83;100.00
19600;BME280;9947;57.722;12.012;2023-08-12T13:04:20;101017.13;;;21.68;100.00
19600;BME280;9947;57.722;12.012;2023-08-12T13:06:51;101010.28;;;21.64;100.00
19600;BME280;9947;57.722;12.012;2023-08-12T13:09:22;101003.69;;;21.73;100.00
19600;BME280;9947;57.722;12.012;2023-08-12T13:12:10;100998.09;;;21.81;100.00
19600;BME280;9947;57.722;12.012;2023-08-12T13:14:40;101006.53;;;21.80;100.00
19600;BME280;9947;57.722;12.012;2023-08-12T13:17:13;101007.41;;;21.80;100.00
19600;BME280;9947;57.722;12.012;2023-08-12T13:19:47;100998.28;;;22.03;100.00
19600;BME280;9947;57.722;12.012;2023-08-12T13:22:18;100993.69;;;22.33;100.00
19600;BME280;9947;57.722;12.012;2023-08-12T13:24:48;101002.91;;;22.02;100.00
19600;BME280;9947;57.722;12.012;2023-08-12T13:27:22;100999.50;;;22.00;100.00
19600;BME280;9947;57.722;12.012;2023-08-12T13:29:50;101004.72;;;21.95;100.00
19600;BME280;9947;57.722;12.012;2023-08-12T13:32:28;101003.75;;;21.65;100.00
19600;BME280;9947;57.722;12.012;2023-08-12T13:35:00;100997.13;;;21.74;100.00
19600;BME280;9947;57.722;12.012;2023-08-12T13:37:28;101001.31;;;21.70;100.00
19600;BME280;9947;57.722;12.012;2023-08-12T13:40:00;101002.72;;;21.66;100.00
19600;BME280;9947;57.722;12.012;2023-08-12T13:42:27;100997.88;;;21.68;100.00
19600;BME280;9947;57.722;12.012;2023-08-12T13:44:59;101005.75;;;21.48;100.00
19600;BME280;9947;57.722;12.012;2023-08-12T13:47:39;100985.94;;;21.53;100.00
19600;BME280;9947;57.722;12.012;2023-08-12T13:50:10;100976.25;;;21.65;100.00
19600;BME280;9947;57.722;12.012;2023-08-12T13:52:45;100972.81;;;21.09;100.00
19600;BME280;9947;57.722;12.012;2023-08-12T13:55:17;100969.63;;;21.20;100.00
19600;BME280;9947;57.722;12.012;2023-08-12T13:57:47;100977.06;;;20.73;100.00
19600;BME280;9947;57.722;12.012;2023-08-12T14:00:17;100980.31;;;20.84;100.00
19600;BME280;9947;57.722;12.012;2023-08-12T14:02:50;100980.25;;;20.92;100.00
19600;BME280;9947;57.722;12.012;2023-08-12T14:05:19;100979.50;;;21.07;100.00
19600;BME280;9947;57.722;12.012;2023-08-12T14:10:22;100967.38;;;20.29;100.00
19600;BME280;9947;57.722;12.012;2023-08-12T14:13:04;100966.06;;;20.17;100.00
19600;BME280;9947;57.722;12.012;2023-08-12T14:18:02;100970.81;;;20.40;100.00
19600;BME280;9947;57.722;12.012;2023-08-12T14:20:44;100974.06;;;20.51;100.00
19600;BME280;9947;57.722;12.012;2023-08-12T14:23:16;100969.78;;;20.57;100.00
19600;BME280;9947;57.722;12.012;2023-08-12T14:25:49;100966.84;;;20.50;100.00
19600;BME280;9947;57.722;12.012;2023-08-12T14:28:18;100963.78;;;20.37;100.00
19600;BME280;9947;57.722;12.012;2023-08-12T14:30:47;100970.84;;;20.23;100.00
19600;BME280;9947;57.722;12.012;2023-08-12T14:33:25;100969.84;;;20.16;100.00
19600;BME280;9947;57.722;12.012;2023-08-12T14:36:00;100966.25;;;19.91;100.00
19600;BME280;9947;57.722;12.012;2023-08-12T14:41:24;100969.50;;;19.70;100.00
19600;BME280;9947;57.722;12.012;2023-08-12T14:43:56;100962.31;;;19.69;100.00
19600;BME280;9947;57.722;12.012;2023-08-12T14:46:26;100955.47;;;19.65;100.00
19600;BME280;9947;57.722;12.012;2023-08-12T14:49:01;100963.31;;;19.52;100.00
19600;BME280;9947;57.722;12.012;2023-08-12T14:54:20;100966.88;;;19.36;100.00
19600;BME280;9947;57.722;12.012;2023-08-12T14:56:55;100965.19;;;19.35;100.00
19600;BME280;9947;57.722;12.012;2023-08-12T14:59:22;100969.75;;;19.10;100.00
19600;BME280;9947;57.722;12.012;2023-08-12T15:02:04;100965.56;;;18.90;100.00
19600;BME280;9947;57.722;12.012;2023-08-12T15:07:06;100960.00;;;19.16;100.00
19600;BME280;9947;57.722;12.012;2023-08-12T15:10:10;100957.94;;;19.18;100.00
19600;BME280;9947;57.722;12.012;2023-08-12T15:13:03;100941.16;;;19.21;100.00
19600;BME280;9947;57.722;12.012;2023-08-12T15:18:12;100942.88;;;19.14;100.00
19600;BME280;9947;57.722;12.012;2023-08-12T15:20:44;100929.84;;;19.00;100.00
19600;BME280;9947;57.722;12.012;2023-08-12T15:23:16;100922.81;;;19.22;100.00
19600;BME280;9947;57.722;12.012;2023-08-12T15:25:44;100918.03;;;19.24;100.00
19600;BME280;9947;57.722;12.012;2023-08-12T15:28:14;100918.06;;;19.40;100.00
19600;BME280;9947;57.722;12.012;2023-08-12T15:30:47;100905.59;;;19.62;100.00
19600;BME280;9947;57.722;12.012;2023-08-12T15:33:21;100903.16;;;19.75;100.00
19600;BME280;9947;57.722;12.012;2023-08-12T15:35:51;100900.97;;;19.79;100.00
19600;BME280;9947;57.722;12.012;2023-08-12T15:38:28;100897.53;;;19.60;100.00
19600;BME280;9947;57.722;12.012;2023-08-12T15:40:56;100899.88;;;19.47;100.00
19600;BME280;9947;57.722;12.012;2023-08-12T15:43:23;100892.53;;;19.48;100.00
19600;BME280;9947;57.722;12.012;2023-08-12T15:45:53;100880.53;;;19.49;100.00
19600;BME280;9947;57.722;12.012;2023-08-12T15:48:21;100878.88;;;19.56;100.00
19600;BME280;9947;57.722;12.012;2023-08-12T15:50:48;100885.66;;;19.44;100.00
19600;BME280;9947;57.722;12.012;2023-08-12T15:53:18;100889.13;;;19.29;100.00
19600;BME280;9947;57.722;12.012;2023-08-12T15:55:59;100883.31;;;19.57;100.00
19600;BME280;9947;57.722;12.012;2023-08-12T15:58:28;100885.38;;;19.55;100.00